KNQI/NQI METAR and TAF weather

Enter ICAO airport designator
Station Type Date Time Source
KNQI METAR 2024/06/16 07:56 UTC NOAA

KNQI 160756Z AUTO 13004KT 10SM FEW024 29/25 A2983 RMK AO2 SLP097 T02890250 $


Station Type Date Time Source
KNQI Decoded METAR 2024/06/16 07:56 UTC NOAA

KINGSVILLE NAS, TX, United States (KNQI) 27-50N 097-81W 15M
Jun 16, 2024 - 03:56 AM EDT / 2024.06.16 0756 UTC
Wind: from the SE (130 degrees) at 5 MPH (4 KT):0
Visibility: 10 mile(s):0
Sky conditions: mostly clear
Temperature: 84.0 F (28.9 C)
Dew Point: 77.0 F (25.0 C)
Relative Humidity: 79%
Pressure (altimeter): 29.83 in. Hg (1010 hPa)
ob: KNQI 160756Z AUTO 13004KT 10SM FEW024 29/25 A2983 RMK AO2 SLP097 T02890250
cycle: 8

Station Type Date Time Source
KNQI TAF 2024/06/16 07:09 UTC NOAA